createdAt,value
2022-10-18T00:00:59.072Z,10.95
2022-10-18T00:03:29.024Z,9.60
2022-10-18T00:05:59.686Z,10.85
2022-10-18T00:08:27.546Z,9.48
2022-10-18T00:10:57.700Z,6.80
2022-10-18T00:13:26.980Z,6.28
2022-10-18T00:16:00.459Z,8.60
2022-10-18T00:18:28.481Z,9.68
2022-10-18T00:21:08.981Z,10.40
2022-10-18T00:23:36.845Z,8.13
2022-10-18T00:26:08.271Z,10.65
2022-10-18T00:28:36.365Z,9.67
2022-10-18T00:31:38.574Z,8.50
2022-10-18T00:34:09.681Z,8.75
2022-10-18T00:36:36.992Z,10.45
2022-10-18T00:39:06.171Z,10.02
2022-10-18T00:41:36.927Z,9.40
2022-10-18T00:44:11.266Z,12.13
2022-10-18T00:46:44.824Z,10.65
2022-10-18T00:49:22.573Z,11.65
2022-10-18T00:52:00.306Z,10.07
2022-10-18T00:54:32.029Z,8.68
2022-10-18T00:57:00.446Z,13.75
2022-10-18T00:59:28.025Z,11.30
2022-10-18T01:01:55.190Z,9.38
2022-10-18T01:04:22.999Z,10.38
2022-10-18T01:07:01.567Z,10.90
2022-10-18T01:09:41.640Z,9.45
2022-10-18T01:12:30.521Z,15.25
2022-10-18T01:15:11.796Z,9.07
2022-10-18T01:17:49.194Z,16.27
2022-10-18T01:20:49.716Z,14.18
2022-10-18T01:23:26.429Z,20.70
2022-10-18T01:26:11.075Z,9.68
2022-10-18T01:28:59.183Z,10.40
2022-10-18T01:31:45.448Z,11.02
2022-10-18T01:34:17.205Z,17.70
2022-10-18T01:36:56.635Z,12.05
2022-10-18T01:39:33.890Z,12.60
2022-10-18T01:42:05.976Z,17.73
2022-10-18T01:44:37.916Z,16.75
2022-10-18T01:47:12.416Z,11.52
2022-10-18T01:49:39.318Z,12.95
2022-10-18T01:52:21.576Z,12.23
2022-10-18T01:54:49.446Z,11.02
2022-10-18T01:57:37.448Z,14.10
2022-10-18T02:00:45.141Z,11.48
2022-10-18T02:03:22.533Z,13.00
2022-10-18T02:06:00.375Z,17.02
2022-10-18T02:08:35.616Z,10.93
2022-10-18T02:11:12.443Z,11.50
2022-10-18T02:14:02.687Z,10.45
2022-10-18T02:16:37.825Z,15.25
2022-10-18T02:19:16.442Z,9.95
2022-10-18T02:21:45.637Z,18.45
2022-10-18T02:24:15.306Z,13.25
2022-10-18T02:26:42.646Z,11.90
2022-10-18T02:29:10.111Z,12.77
2022-10-18T02:31:44.049Z,11.15
2022-10-18T02:34:31.958Z,14.63
2022-10-18T02:37:01.440Z,11.80
2022-10-18T02:39:48.609Z,10.70
2022-10-18T02:42:18.042Z,13.27
2022-10-18T02:44:48.019Z,15.60
2022-10-18T02:47:21.244Z,10.85
2022-10-18T02:49:48.621Z,12.00
2022-10-18T02:52:15.641Z,10.80
2022-10-18T02:54:42.470Z,13.45
2022-10-18T02:57:09.676Z,13.55
2022-10-18T02:59:36.834Z,18.73
2022-10-18T03:02:04.119Z,14.10
2022-10-18T03:04:31.502Z,15.10
2022-10-18T03:06:58.530Z,21.58
2022-10-18T03:09:25.706Z,17.10
2022-10-18T03:11:54.904Z,13.85
2022-10-18T03:14:22.206Z,14.15
2022-10-18T03:16:52.143Z,13.95
2022-10-18T03:19:19.201Z,14.75
2022-10-18T03:21:46.553Z,13.10
2022-10-18T03:24:13.874Z,9.82
2022-10-18T03:26:41.293Z,15.00
2022-10-18T03:29:10.321Z,12.88
2022-10-18T03:31:37.716Z,16.80
2022-10-18T03:34:07.495Z,10.98
2022-10-18T03:36:34.649Z,11.65
2022-10-18T03:39:01.745Z,13.52
2022-10-18T03:41:29.171Z,12.38
2022-10-18T03:43:58.553Z,10.23
2022-10-18T03:46:28.611Z,14.02
2022-10-18T03:48:55.547Z,11.15
2022-10-18T03:51:28.569Z,14.80
2022-10-18T03:53:55.560Z,14.07
2022-10-18T03:56:22.545Z,14.90
2022-10-18T03:58:49.599Z,12.75
2022-10-18T04:01:19.621Z,11.23
2022-10-18T04:03:46.632Z,9.38
2022-10-18T04:06:14.722Z,13.05
2022-10-18T04:08:44.708Z,10.32
2022-10-18T04:11:14.727Z,10.90
2022-10-18T04:13:41.747Z,13.82
2022-10-18T04:16:08.750Z,15.30
2022-10-18T04:18:35.717Z,16.58
2022-10-18T04:21:02.894Z,11.43
2022-10-18T04:23:31.811Z,13.32
2022-10-18T04:26:04.782Z,12.50
2022-10-18T04:28:31.864Z,17.63
2022-10-18T04:31:01.951Z,13.00
2022-10-18T04:33:28.945Z,15.13
2022-10-18T04:35:55.883Z,12.13
2022-10-18T04:38:26.648Z,15.32
2022-10-18T04:40:53.744Z,13.15
2022-10-18T04:43:24.459Z,13.23
2022-10-18T04:45:51.491Z,13.68
2022-10-18T04:48:19.006Z,15.52
2022-10-18T04:50:49.974Z,11.88
2022-10-18T04:53:21.102Z,11.93
2022-10-18T04:55:49.494Z,18.95
2022-10-18T04:58:18.171Z,16.85
2022-10-18T05:00:47.943Z,16.42
2022-10-18T05:03:18.176Z,15.75
2022-10-18T05:06:03.952Z,17.75
2022-10-18T05:08:33.209Z,14.73
2022-10-18T05:11:00.713Z,16.88
2022-10-18T05:13:31.041Z,18.55
2022-10-18T05:16:00.184Z,14.93
2022-10-18T05:18:27.564Z,13.98
2022-10-18T05:20:54.660Z,15.35
2022-10-18T05:23:21.879Z,14.57
2022-10-18T05:25:49.176Z,14.07
2022-10-18T05:28:41.093Z,13.57
2022-10-18T05:31:12.281Z,14.48
2022-10-18T05:33:39.537Z,14.10
2022-10-18T05:36:10.299Z,17.00
2022-10-18T05:38:45.559Z,15.07
2022-10-18T05:41:13.146Z,18.13
2022-10-18T05:43:41.177Z,20.00
2022-10-18T05:46:13.467Z,23.02
2022-10-18T05:48:45.029Z,18.95
2022-10-18T05:51:14.605Z,17.95
2022-10-18T05:53:44.154Z,18.88
2022-10-18T05:56:14.521Z,16.63
2022-10-18T05:58:42.871Z,19.88
2022-10-18T06:01:10.922Z,19.38
2022-10-18T06:03:38.102Z,18.33
2022-10-18T06:06:08.189Z,17.98
2022-10-18T06:08:39.361Z,16.08
2022-10-18T06:11:11.524Z,17.40
2022-10-18T06:16:19.979Z,18.33
2022-10-18T06:19:00.786Z,20.70
2022-10-18T06:21:29.481Z,16.77
2022-10-18T06:24:00.912Z,20.35
2022-10-18T06:26:28.741Z,18.57
2022-10-18T06:29:01.425Z,18.38
2022-10-18T06:31:28.582Z,22.40
2022-10-18T06:33:58.299Z,18.30
2022-10-18T06:36:25.308Z,19.55
2022-10-18T06:38:52.807Z,18.65
2022-10-18T06:41:20.606Z,20.13
2022-10-18T06:43:51.750Z,16.27
2022-10-18T06:46:19.942Z,18.10
2022-10-18T06:48:47.377Z,18.23
2022-10-18T06:51:15.422Z,18.25
2022-10-18T06:53:53.460Z,16.80
2022-10-18T06:56:30.774Z,18.48
2022-10-18T06:59:00.055Z,20.65
2022-10-18T07:01:28.633Z,19.75
2022-10-18T07:03:58.908Z,17.38
2022-10-18T07:06:26.261Z,15.77
2022-10-18T07:08:54.290Z,17.17
2022-10-18T07:11:25.186Z,22.80
2022-10-18T07:13:55.672Z,21.58
2022-10-18T07:16:25.886Z,20.00
2022-10-18T07:18:52.871Z,19.35
2022-10-18T07:21:24.569Z,18.50
2022-10-18T07:23:52.728Z,19.52
2022-10-18T07:26:22.664Z,18.65
2022-10-18T07:28:54.785Z,18.98
2022-10-18T07:31:24.241Z,17.73
2022-10-18T07:33:52.479Z,19.50
2022-10-18T07:36:21.415Z,17.85
2022-10-18T07:38:49.264Z,21.65
2022-10-18T07:41:16.290Z,21.33
2022-10-18T07:43:49.979Z,20.55
2022-10-18T07:46:18.662Z,20.60
2022-10-18T07:48:45.961Z,22.27
2022-10-18T07:51:16.056Z,21.50
2022-10-18T07:53:43.043Z,20.75
2022-10-18T07:56:21.041Z,22.05
2022-10-18T07:58:53.866Z,18.48
2022-10-18T08:01:22.798Z,23.95
2022-10-18T08:03:54.024Z,23.95
2022-10-18T08:06:22.896Z,32.15
2022-10-18T08:08:50.023Z,29.02
2022-10-18T08:11:20.707Z,30.30
2022-10-18T08:13:51.227Z,41.92
2022-10-18T08:16:21.525Z,31.52
2022-10-18T08:18:49.303Z,36.50
2022-10-18T08:21:18.605Z,27.05
2022-10-18T08:23:46.369Z,43.88
2022-10-18T08:26:16.163Z,40.42
2022-10-18T08:28:49.265Z,42.00
2022-10-18T08:31:25.905Z,43.55
2022-10-18T08:33:56.990Z,44.72
2022-10-18T08:36:24.719Z,40.90
2022-10-18T08:38:51.844Z,48.88
2022-10-18T08:41:43.949Z,54.72
2022-10-18T08:44:28.542Z,52.22
2022-10-18T08:47:10.713Z,49.97
2022-10-18T08:49:47.288Z,54.85
2022-10-18T08:52:24.895Z,54.45
2022-10-18T08:55:18.928Z,58.78
2022-10-18T08:57:47.859Z,54.30
2022-10-18T09:00:19.782Z,57.13
2022-10-18T09:02:49.515Z,55.00
2022-10-18T09:05:16.630Z,59.58
2022-10-18T09:08:09.825Z,53.70
2022-10-18T09:11:02.106Z,52.22
2022-10-18T09:14:03.583Z,46.38
2022-10-18T09:16:54.977Z,45.95
2022-10-18T09:19:38.720Z,38.75
2022-10-18T09:22:18.470Z,50.28
2022-10-18T09:25:19.564Z,48.90
2022-10-18T09:27:53.941Z,54.53
2022-10-18T09:30:41.487Z,47.90
2022-10-18T09:33:18.916Z,46.58
2022-10-18T09:36:02.478Z,41.90
2022-10-18T09:38:35.543Z,50.65
2022-10-18T09:41:10.749Z,45.22
2022-10-18T09:43:59.656Z,45.22
2022-10-18T09:46:32.260Z,53.35
2022-10-18T09:49:05.875Z,52.08
2022-10-18T09:51:39.079Z,59.35
2022-10-18T09:54:23.999Z,50.45
2022-10-18T09:59:37.127Z,50.45
2022-10-18T10:02:05.603Z,44.70
2022-10-18T10:04:36.685Z,42.60
2022-10-18T10:07:08.859Z,48.78
2022-10-18T10:12:38.894Z,48.28
2022-10-18T10:15:23.846Z,47.13
2022-10-18T10:17:59.611Z,49.20
2022-10-18T10:20:47.312Z,54.85
2022-10-18T10:23:21.187Z,52.20
2022-10-18T10:26:08.320Z,48.67
2022-10-18T10:28:37.787Z,48.60
2022-10-18T10:31:23.624Z,48.17
2022-10-18T10:34:06.782Z,53.17
2022-10-18T10:36:35.766Z,48.17
2022-10-18T10:39:10.812Z,46.72
2022-10-18T10:41:40.934Z,46.80
2022-10-18T10:44:24.375Z,48.22
2022-10-18T10:46:55.528Z,42.85
2022-10-18T10:49:42.281Z,47.08
2022-10-18T10:52:28.406Z,49.58
2022-10-18T10:55:11.078Z,48.15
2022-10-18T10:57:47.594Z,55.15
2022-10-18T11:00:44.105Z,45.72
2022-10-18T11:03:27.797Z,43.67
2022-10-18T11:06:01.193Z,44.30
2022-10-18T11:08:38.234Z,37.45
2022-10-18T11:11:43.573Z,47.35
2022-10-18T11:14:36.529Z,40.58
2022-10-18T11:17:17.427Z,41.63
2022-10-18T11:20:01.876Z,33.83
2022-10-18T11:22:35.360Z,37.53
2022-10-18T11:25:07.439Z,32.83
2022-10-18T11:27:54.130Z,38.38
2022-10-18T11:30:53.447Z,36.35
2022-10-18T11:33:50.060Z,33.17
2022-10-18T11:36:31.215Z,30.55
2022-10-18T11:39:07.371Z,27.80
2022-10-18T11:41:55.478Z,34.38
2022-10-18T11:44:45.147Z,29.65
2022-10-18T11:47:40.836Z,30.17
2022-10-18T11:50:13.418Z,31.40
2022-10-18T11:52:48.946Z,30.73
2022-10-18T11:55:36.971Z,27.08
2022-10-18T11:58:23.295Z,19.25
2022-10-18T12:00:56.174Z,17.00
2022-10-18T12:03:44.714Z,19.67
2022-10-18T12:06:21.035Z,27.05
2022-10-18T12:08:54.267Z,24.55
2022-10-18T12:11:29.827Z,25.95
2022-10-18T12:14:01.748Z,25.98
2022-10-18T12:16:50.458Z,25.42
2022-10-18T12:19:26.217Z,18.38
2022-10-18T12:22:10.560Z,18.17
2022-10-18T12:24:37.876Z,14.18
2022-10-18T12:27:05.111Z,17.73
2022-10-18T12:29:45.399Z,18.13
2022-10-18T12:33:02.067Z,14.07
2022-10-18T12:35:45.566Z,17.55
2022-10-18T12:38:25.597Z,17.67
2022-10-18T12:40:54.977Z,19.73
2022-10-18T12:43:37.937Z,24.65
2022-10-18T12:46:13.081Z,18.98
2022-10-18T12:48:46.365Z,20.38
2022-10-18T12:51:15.376Z,15.23
2022-10-18T12:53:46.023Z,19.48
2022-10-18T12:56:42.307Z,14.13
2022-10-18T12:59:15.495Z,13.45
2022-10-18T13:01:51.372Z,14.27
2022-10-18T13:04:32.630Z,14.77
2022-10-18T13:07:05.544Z,17.52
2022-10-18T13:09:37.853Z,18.48
2022-10-18T13:12:10.661Z,20.83
2022-10-18T13:15:05.956Z,17.67
2022-10-18T13:17:55.052Z,18.42
2022-10-18T13:20:37.794Z,16.98
2022-10-18T13:23:38.069Z,15.10
2022-10-18T13:27:05.118Z,10.93
2022-10-18T13:30:14.758Z,10.43
2022-10-18T13:32:50.664Z,13.55
2022-10-18T13:35:45.120Z,12.70
2022-10-18T13:38:47.298Z,14.27
2022-10-18T13:41:18.967Z,9.98
2022-10-18T13:44:00.348Z,13.55
2022-10-18T13:46:33.111Z,9.80
2022-10-18T13:49:25.077Z,9.52
2022-10-18T13:52:48.379Z,9.55
2022-10-18T13:55:33.835Z,12.43
2022-10-18T13:58:19.673Z,15.60
2022-10-18T14:00:49.110Z,12.05
2022-10-18T14:03:56.242Z,17.88
2022-10-18T14:06:25.361Z,9.48
2022-10-18T14:09:14.182Z,10.43
2022-10-18T14:12:25.054Z,10.50
2022-10-18T14:15:05.335Z,12.40
2022-10-18T14:17:43.012Z,12.18
2022-10-18T14:20:49.023Z,7.20
2022-10-18T14:23:27.743Z,7.05
2022-10-18T14:26:09.245Z,9.15
2022-10-18T14:28:58.616Z,11.40
2022-10-18T14:31:24.946Z,11.50
2022-10-18T14:33:59.216Z,8.25
2022-10-18T14:36:29.945Z,12.70
2022-10-18T14:39:03.154Z,5.95
2022-10-18T14:41:33.011Z,9.10
2022-10-18T14:44:12.107Z,11.68
2022-10-18T14:47:04.254Z,13.52
2022-10-18T14:49:31.281Z,8.77
2022-10-18T14:52:00.316Z,11.18
2022-10-18T14:54:37.208Z,5.07
2022-10-18T14:57:07.885Z,8.07
2022-10-18T14:59:54.042Z,6.18
2022-10-18T15:02:26.776Z,7.57
2022-10-18T15:05:08.523Z,12.35
2022-10-18T15:07:36.533Z,12.43
2022-10-18T15:10:05.516Z,9.07
2022-10-18T15:12:40.992Z,6.43
2022-10-18T15:15:27.613Z,7.00
2022-10-18T15:18:05.263Z,9.50
2022-10-18T15:20:42.655Z,5.15
2022-10-18T15:23:25.588Z,6.85
2022-10-18T15:26:03.164Z,7.78
2022-10-18T15:28:33.448Z,2.70
2022-10-18T15:31:02.184Z,6.25
2022-10-18T15:33:34.914Z,7.43
2022-10-18T15:36:10.794Z,9.48
2022-10-18T15:38:38.906Z,10.73
2022-10-18T15:41:38.477Z,5.32
2022-10-18T15:44:36.764Z,5.85
2022-10-18T15:47:13.190Z,8.20
2022-10-18T15:49:46.214Z,6.55
2022-10-18T15:52:22.012Z,9.27
2022-10-18T15:54:51.567Z,7.18
2022-10-18T15:57:18.775Z,7.13
2022-10-18T15:59:54.369Z,5.80
2022-10-18T16:02:24.510Z,3.03
2022-10-18T16:04:54.572Z,3.72
2022-10-18T16:07:21.793Z,3.55
2022-10-18T16:09:49.006Z,4.05
2022-10-18T16:12:27.798Z,7.32
2022-10-18T16:14:56.951Z,5.22
2022-10-18T16:17:28.184Z,6.15
2022-10-18T16:19:59.803Z,3.70
2022-10-18T16:22:27.181Z,8.38
2022-10-18T16:24:54.937Z,6.88
2022-10-18T16:27:28.260Z,9.30
2022-10-18T16:30:00.195Z,8.63
2022-10-18T16:32:27.289Z,8.45
2022-10-18T16:34:54.927Z,7.50
2022-10-18T16:37:22.110Z,14.40
2022-10-18T16:39:49.028Z,8.48
2022-10-18T16:42:16.005Z,11.15
2022-10-18T16:44:42.890Z,9.82
2022-10-18T16:47:12.320Z,7.97
2022-10-18T16:49:45.470Z,9.73
2022-10-18T16:52:12.734Z,13.88
2022-10-18T16:54:39.912Z,7.72
2022-10-18T16:57:07.420Z,14.20
2022-10-18T16:59:37.396Z,11.25
2022-10-18T17:02:11.605Z,12.07
2022-10-18T17:04:38.775Z,10.70
2022-10-18T17:07:08.969Z,9.57
2022-10-18T17:09:37.080Z,9.40
2022-10-18T17:12:06.389Z,7.88
2022-10-18T17:14:39.809Z,8.43
2022-10-18T17:17:12.847Z,10.88
2022-10-18T17:19:40.172Z,9.20
2022-10-18T17:22:10.022Z,11.00
2022-10-18T17:24:42.421Z,9.88
2022-10-18T17:27:11.332Z,10.52
2022-10-18T17:29:40.933Z,6.97
2022-10-18T17:32:08.642Z,8.93
2022-10-18T17:34:38.013Z,7.65
2022-10-18T17:37:06.156Z,5.88
2022-10-18T17:39:36.688Z,19.15
2022-10-18T17:42:06.307Z,10.27
2022-10-18T17:44:33.882Z,8.57
2022-10-18T17:47:01.012Z,14.68
2022-10-18T17:49:28.361Z,10.80
2022-10-18T17:51:55.807Z,5.60
2022-10-18T17:54:22.867Z,13.30
2022-10-18T17:56:52.341Z,8.65
2022-10-18T17:59:22.497Z,10.43
2022-10-18T18:01:49.681Z,11.63
2022-10-18T18:04:25.822Z,10.00
2022-10-18T18:06:57.422Z,10.60
2022-10-18T18:09:25.061Z,13.20
2022-10-18T18:11:52.292Z,12.60
2022-10-18T18:14:19.759Z,11.93
2022-10-18T18:16:47.498Z,13.52
2022-10-18T18:19:15.651Z,8.15
2022-10-18T18:21:43.487Z,8.48
2022-10-18T18:24:10.889Z,13.32
2022-10-18T18:26:41.487Z,11.45
2022-10-18T18:29:08.656Z,7.95
2022-10-18T18:31:41.307Z,10.82
2022-10-18T18:34:11.297Z,12.05
2022-10-18T18:36:40.565Z,12.43
2022-10-18T18:39:09.098Z,13.52
2022-10-18T18:41:37.911Z,8.93
2022-10-18T18:44:06.315Z,10.90
2022-10-18T18:46:38.394Z,12.43
2022-10-18T18:49:08.062Z,9.55
2022-10-18T18:51:38.139Z,14.35
2022-10-18T18:54:05.671Z,12.68
2022-10-18T18:56:33.428Z,9.65
2022-10-18T18:59:00.967Z,15.10
2022-10-18T19:01:30.917Z,12.63
2022-10-18T19:03:58.985Z,14.93
2022-10-18T19:06:29.299Z,16.35
2022-10-18T19:09:01.540Z,11.57
2022-10-18T19:11:35.213Z,11.80
2022-10-18T19:14:03.802Z,13.60
2022-10-18T19:16:35.884Z,14.75
2022-10-18T19:19:06.187Z,10.85
2022-10-18T19:21:37.299Z,12.50
2022-10-18T19:24:46.198Z,13.25
2022-10-18T19:27:15.359Z,16.45
2022-10-18T19:29:43.144Z,15.00
2022-10-18T19:32:12.588Z,20.95
2022-10-18T19:34:46.123Z,18.63
2022-10-18T19:37:15.244Z,12.48
2022-10-18T19:39:42.578Z,15.20
2022-10-18T19:42:18.620Z,18.58
2022-10-18T19:44:49.702Z,17.75
2022-10-18T19:47:16.838Z,16.75
2022-10-18T19:49:44.215Z,18.15
2022-10-18T19:52:12.512Z,14.73
2022-10-18T19:54:40.059Z,14.80
2022-10-18T19:57:07.319Z,13.73
2022-10-18T19:59:36.209Z,16.23
2022-10-18T20:02:06.709Z,14.80
2022-10-18T20:04:35.164Z,15.25
2022-10-18T20:07:02.849Z,14.38
2022-10-18T20:09:30.097Z,14.63
2022-10-18T20:11:57.357Z,18.45
2022-10-18T20:14:24.490Z,17.77
2022-10-18T20:16:51.762Z,19.08
2022-10-18T20:19:18.889Z,14.93
2022-10-18T20:21:46.104Z,19.80
2022-10-18T20:24:13.189Z,21.98
2022-10-18T20:26:40.318Z,20.55
2022-10-18T20:29:10.725Z,24.08
2022-10-18T20:31:39.152Z,18.52
2022-10-18T20:34:12.061Z,16.42
2022-10-18T20:36:43.330Z,25.08
2022-10-18T20:39:13.365Z,17.08
2022-10-18T20:41:41.379Z,16.85
2022-10-18T20:44:13.727Z,19.83
2022-10-18T20:49:10.467Z,21.48
2022-10-18T20:51:37.427Z,19.08
2022-10-18T20:54:06.857Z,20.80
2022-10-18T20:56:36.949Z,17.75
2022-10-18T20:59:11.717Z,29.58
2022-10-18T21:01:40.427Z,20.15
2022-10-18T21:04:09.552Z,17.77
2022-10-18T21:06:42.217Z,17.15
2022-10-18T21:09:15.647Z,17.58
2022-10-18T21:11:44.993Z,12.10
2022-10-18T21:14:14.902Z,17.17
2022-10-18T21:16:43.322Z,16.35
2022-10-18T21:19:17.684Z,16.02
2022-10-18T21:21:47.186Z,15.93
2022-10-18T21:24:18.107Z,22.85
2022-10-18T21:26:45.875Z,18.15
2022-10-18T21:29:21.867Z,18.42
2022-10-18T21:31:49.760Z,15.10
2022-10-18T21:34:17.764Z,17.00
2022-10-18T21:36:50.092Z,18.83
2022-10-18T21:39:20.445Z,16.83
2022-10-18T21:41:47.946Z,16.88
2022-10-18T21:44:15.663Z,19.25
2022-10-18T21:46:43.565Z,21.15
2022-10-18T21:49:11.433Z,19.92
2022-10-18T21:51:39.533Z,14.85
2022-10-18T21:54:10.481Z,19.52
2022-10-18T21:56:37.893Z,20.65
2022-10-18T21:59:05.513Z,19.40
2022-10-18T22:01:35.158Z,17.02
2022-10-18T22:04:05.703Z,17.42
2022-10-18T22:09:14.731Z,22.60
2022-10-18T22:11:47.427Z,21.77
2022-10-18T22:14:14.462Z,18.92
2022-10-18T22:16:41.483Z,25.65
2022-10-18T22:19:09.557Z,15.13
2022-10-18T22:21:36.498Z,22.35
2022-10-18T22:24:10.787Z,20.88
2022-10-18T22:26:40.700Z,20.77
2022-10-18T22:29:15.092Z,18.25
2022-10-18T22:31:45.114Z,19.98
2022-10-18T22:34:15.457Z,17.63
2022-10-18T22:36:45.919Z,16.73
2022-10-18T22:39:16.965Z,23.25
2022-10-18T22:41:44.379Z,24.80
2022-10-18T22:44:15.182Z,21.80
2022-10-18T22:46:43.042Z,20.92
2022-10-18T22:49:11.444Z,19.08
2022-10-18T22:51:38.696Z,22.67
2022-10-18T22:54:10.267Z,17.58
2022-10-18T22:56:41.458Z,16.27
2022-10-18T22:59:08.600Z,18.40
2022-10-18T23:01:39.003Z,17.45
2022-10-18T23:04:06.251Z,21.80
2022-10-18T23:06:36.045Z,20.33
2022-10-18T23:09:10.436Z,15.18
2022-10-18T23:11:37.664Z,29.15
2022-10-18T23:14:08.584Z,26.75
2022-10-18T23:16:35.922Z,16.80
2022-10-18T23:19:03.228Z,25.15
2022-10-18T23:21:30.692Z,21.00
2022-10-18T23:23:58.073Z,20.15
2022-10-18T23:26:27.504Z,29.13
2022-10-18T23:28:55.310Z,21.73
2022-10-18T23:31:31.316Z,23.45
2022-10-18T23:34:03.886Z,21.30
2022-10-18T23:36:32.626Z,14.25
2022-10-18T23:39:02.556Z,15.38
2022-10-18T23:41:29.656Z,19.02
2022-10-18T23:43:56.834Z,19.55
2022-10-18T23:46:24.679Z,22.67
2022-10-18T23:48:54.516Z,20.77
2022-10-18T23:51:21.552Z,20.17
2022-10-18T23:53:48.609Z,26.20
2022-10-18T23:56:16.668Z,20.15
2022-10-18T23:58:44.831Z,24.73
